NEODyS-2

Near Earth Objects - Dynamic Site
NEODyS ∴ Observatories ∴ Site 691 ∴ Obs & residuals
Contact »
691  ▹ 
OBSERVATIONS AND RESIDUALS

691-Steward Observatory, Kitt Peak-Spacewatch

Detections | Residuals | Detections & Residuals

[1-200] [201-400] [401-600] [601-800] [801-1000] [1001-1200] [1201-1400] [1401-1600] [1601-1800] [1801-2000] [2001-2200] [2201-2400] [2401-2600] [2601-2800] [2801-3000] [3001-3200] [3201-3400] [3401-3600] [3601-3800] [3801-4000] [4001-4200] [4201-4400] [4401-4600] [4601-4800] [4801-5000] [5001-5200] [5201-5400] [5401-5600] [5601-5800] [5801-6000] [6001-6200] [6201-6400] [6401-6600] [6601-6800] [6801-7000] [7001-7200] [7201-7400] [7401-7600] [7601-7800] [7801-8000] [8001-8200] [8201-8400] [8401-8600] [8601-8800] [8801-9000] [9001-9200] [9201-9400] [9401-9600] [9601-9800] [9801-10000] [10001-10200] [10201-10400] [10401-10600] [10601-10800] [10801-11000] [11001-11200] [11201-11400] [11401-11600] [11601-11800] [11801-12000] [12001-12200] [12201-12400] [12401-12600] [12601-12800] [12801-13000] [13001-13200] [13201-13400] [13401-13600] [13601-13800] [13801-14000] [14001-14200] [14201-14400] [14401-14600] [14601-14800] [14801-15000] [15001-15200] [15201-15400] [15401-15600] [15601-15800] [15801-16000] [16001-16200] [16201-16400] [16401-16600] [16601-16800] [16801-17000] [17001-17200] [17201-17400] [17401-17600] [17601-17800] [17801-18000] [18001-18200] [18201-18400] [18401-18600] [18601-18800] [18801-19000] [19001-19200] [19201-19400] [19401-19600] [19601-19800] [19801-20000] [20001-20200] [20201-20400] [20401-20600] [20601-20800] [20801-21000] [21001-21200] [21201-21400] [21401-21600] [21601-21800] [21801-22000] [22001-22200] [22201-22400] [22401-22600] [22601-22800] [22801-23000] [23001-23200] [23201-23400] [23401-23600] [23601-23800] [23801-24000] [24001-24200] [24201-24400] [24401-24600] [24601-24800] [24801-25000] [25001-25200] [25201-25400] [25401-25600] [25601-25800] [25801-26000] [26001-26200] [26201-26400] [26401-26600] [26601-26800] [26801-27000] [27001-27200] [27201-27400] [27401-27600] [27601-27800] [27801-28000] [28001-28200] [28201-28400] [28401-28600] [28601-28800] [28801-29000] [29001-29200] [29201-29400] [29401-29600] [29601-29800] [29801-30000] [30001-30200] [30201-30400] [30401-30600] [30601-30800] [30801-31000] [31001-31200] [31201-31400] [31401-31600] [31601-31800] [31801-32000] [32001-32200] [32201-32400] [32401-32600] [32601-32800] [32801-33000] [33001-33200] [33201-33400] [33401-33600] [33601-33800] [33801-34000] [34001-34200] [34201-34400] [34401-34600] [34601-34800] [34801-35000] [35001-35200] [35201-35400] [35401-35600] [35601-35800] [35801-36000] [36001-36200] [36201-36400] [36401-36600] [36601-36800] [36801-37000] [37001-37200] [37201-37400] [37401-37600] [37601-37800] [37801-38000] [38001-38200] [38201-38400] [38401-38600] [38601-38800] [38801-39000] [39001-39200] [39201-39400] [39401-39600] [39601-39800] [39801-40000] [40001-40200] [40201-40400] [40401-40600] [40601-40800] [40801-41000] [41001-41200] [41201-41400] [41401-41600] [41601-41800] [41801-42000] [42001-42200] [42201-42400] [42401-42600] [42601-42800] [42801-43000] [43001-43200] [43201-43400] [43401-43600] [43601-43800] [43801-44000] [44001-44200] [44201-44400] [44401-44600] [44601-44800] [44801-45000] [45001-45200] [45201-45400] [45401-45600] [45601-45800] [45801-46000] [46001-46200] [46201-46400] [46401-46600] [46601-46800] [46801-47000] [47001-47200] [47201-47400] [47401-47600] [47601-47800] [47801-48000] [48001-48200] [48201-48400] [48401-48600] [48601-48800] [48801-49000] [49001-49200] [49201-49400] [49401-49600] [49601-49800] [49801-50000] [50001-50200] [50201-50388]

Designation T Tech N Date Right Ascension Declination Apparent Magnitude Star Catalog Site code χ Used A Used M
yr-mo-day precision hr:min:sec precision rms F bias residual deg min sec precision rms F bias residual mag/col rms residual
2009SQ O C 2009-08-20.36948 1.000E-05 00:04:49.780 1.500E-01 0.500 F -0.145 -0.304 +04° 45' 11.40" 1.000E-01 0.500 F 0.276 0.121 o 691 0.77 Yes No
2009QE8 O C 2009-08-20.37725 1.000E-05 00:05:37.210 1.500E-01 0.500 F -0.180 -0.191 +03° 08' 13.00" 1.000E-01 0.500 F 0.289 0.200 19.1 V 0.70 0.15 o 691 0.56 Yes Yes
1993RA O C H 2009-08-20.37971 1.000E-05 00:10:49.380 1.500E-01 0.500 F -0.207 0.324 +03° 29' 46.30" 1.000E-01 0.500 F 0.257 -0.876 o 691 1.87 Yes No
2009SQ O C 2009-08-20.38757 1.000E-05 00:04:48.230 1.500E-01 0.500 F -0.145 -0.065 +04° 45' 24.30" 1.000E-01 0.500 F 0.276 0.359 o 691 0.94 Yes No
2009QE8 O C 2009-08-20.39536 1.000E-05 00:05:35.810 1.500E-01 0.500 F -0.180 -0.217 +03° 08' 19.30" 1.000E-01 0.500 F 0.289 0.007 19.1 V 0.70 0.15 o 691 0.44 Yes Yes
2002BP26 O C H 2009-08-27.31756 1.000E-05 23:46:26.180 1.500E-01 0.500 F -0.243 -0.613 -02° 54' 03.80" 1.000E-01 0.500 F 0.354 0.502 o 691 1.59 Yes No
2001HZ7 O C 2009-08-27.34701 1.000E-05 00:04:12.860 1.500E-01 0.500 F -0.178 -0.470 -01° 31' 21.20" 1.000E-01 0.500 F 0.165 0.279 20.8 V 0.70 0.20 o 691 1.10 Yes Yes
2003BQ46 O C H 2009-08-27.35972 1.000E-05 23:51:58.030 1.500E-01 0.500 F -0.195 -0.613 -01° 50' 26.90" 1.000E-01 0.500 F 0.231 -0.321 21.2 V 0.70 0.21 o 691 1.39 Yes Yes
2001HZ7 O C 2009-08-27.36463 1.000E-05 00:04:12.090 1.500E-01 0.500 F -0.178 -0.440 -01° 31' 35.20" 1.000E-01 0.500 F 0.165 -0.182 20.7 V 0.70 0.10 o 691 0.96 Yes Yes
2003BQ46 O C H 2009-08-27.37732 1.000E-05 23:51:56.980 1.500E-01 0.500 F -0.195 -0.637 -01° 50' 36.80" 1.000E-01 0.500 F 0.231 0.438 o 691 1.55 Yes No
2001HZ7 O C 2009-08-27.38224 1.000E-05 00:04:11.320 1.500E-01 0.500 F -0.178 -0.385 -01° 31' 48.60" 1.000E-01 0.500 F 0.165 -0.043 20.6 V 0.70 0.00 o 691 0.78 Yes Yes
2009QF34 O C 2009-08-27.39649 1.000E-05 00:35:45.940 1.500E-01 0.500 F -0.204 -0.886 +04° 42' 53.40" 1.000E-01 0.500 F 0.088 -1.473 20.6 V 0.70 -0.64 o 691 3.25 No Yes
2009QF34 O C 2009-08-27.41411 1.000E-05 00:35:47.590 1.500E-01 0.500 F -0.204 0.217 +04° 42' 56.90" 1.000E-01 0.500 F 0.088 0.038 21.2 V 0.70 -0.04 o 691 0.48 Yes Yes
2009QF34 O C 2009-08-27.43172 1.000E-05 00:35:49.160 1.500E-01 0.500 F -0.204 0.129 +04° 42' 58.90" 1.000E-01 0.500 F 0.088 0.089 20.9 V 0.70 -0.34 o 691 0.34 Yes Yes
2009QZ34 O C 2009-08-28.29639 1.000E-05 23:36:59.590 1.500E-01 0.500 F -0.090 0.251 +01° 00' 21.80" 1.000E-01 0.500 F 0.222 -0.069 20.4 V 0.70 -0.06 o 691 0.53 Yes Yes
2009QA35 O C 2009-08-28.30155 1.000E-05 23:24:36.220 1.500E-01 0.500 F -0.069 -0.873 -00° 16' 41.40" 1.000E-01 0.500 F 0.393 2.318 19.7 V 0.70 -0.36 o 691 4.56 No Yes
2009QY33 O C 2009-08-28.30647 1.000E-05 23:35:02.770 1.500E-01 0.500 F -0.096 -0.370 -01° 12' 01.20" 1.000E-01 0.500 F 0.273 -0.068 19.7 V 0.70 0.01 o 691 0.77 Yes Yes
2009QZ34 O C 2009-08-28.31164 1.000E-05 23:37:01.260 1.500E-01 0.500 F -0.090 0.259 +01° 00' 27.50" 1.000E-01 0.500 F 0.222 0.172 20.3 V 0.70 -0.16 o 691 0.64 Yes Yes
2009QA35 O C 2009-08-28.31680 1.000E-05 23:24:35.650 1.500E-01 0.500 F -0.069 -0.188 -00° 15' 36.40" 1.000E-01 0.500 F 0.393 -0.056 20.1 V 0.70 0.04 o 691 0.42 Yes Yes
2009QY33 O C 2009-08-28.32172 1.000E-05 23:35:02.330 1.500E-01 0.500 F -0.096 -0.145 -01° 12' 40.30" 1.000E-01 0.500 F 0.273 -0.070 19.9 V 0.70 0.21 o 691 0.33 Yes Yes
2009QZ34 O C 2009-08-28.32688 1.000E-05 23:37:02.920 1.500E-01 0.500 F -0.090 0.214 +01° 00' 33.00" 1.000E-01 0.500 F 0.222 0.223 20.4 V 0.70 -0.06 o 691 0.63 Yes Yes
2009QA35 O C 2009-08-28.33204 1.000E-05 23:24:35.040 1.500E-01 0.500 F -0.069 -0.032 -00° 14' 29.10" 1.000E-01 0.500 F 0.393 -0.055 20.0 V 0.70 -0.06 o 691 0.14 Yes Yes
2009QY33 O C 2009-08-28.33695 1.000E-05 23:35:01.860 1.500E-01 0.500 F -0.096 -0.339 -01° 13' 19.40" 1.000E-01 0.500 F 0.273 -0.107 19.8 V 0.70 0.12 o 691 0.72 Yes Yes
2009QE8 O C 2009-08-28.34464 1.000E-05 23:55:03.400 1.500E-01 0.500 F -0.148 -0.220 +03° 45' 27.30" 1.000E-01 0.500 F 0.253 0.077 19.1 V 0.70 0.25 o 691 0.47 Yes Yes
1993RA O C 2009-08-28.35709 1.000E-05 00:12:00.380 1.500E-01 0.500 F -0.149 -0.341 +02° 50' 21.80" 1.000E-01 0.500 F 0.248 -0.215 20.1 V 0.70 -0.15 o 691 0.81 Yes Yes
2009QE8 O C 2009-08-28.36245 1.000E-05 23:55:01.800 1.500E-01 0.500 F -0.148 0.007 +03° 45' 31.00" 1.000E-01 0.500 F 0.253 0.118 19.0 V 0.70 0.15 o 691 0.24 Yes Yes
1993RA O C 2009-08-28.37489 1.000E-05 00:12:00.330 1.500E-01 0.500 F -0.149 -0.100 +02° 50' 15.20" 1.000E-01 0.500 F 0.248 0.246 19.8 V 0.70 -0.45 o 691 0.53 Yes Yes
2009QE8 O C 2009-08-28.38023 1.000E-05 23:55:00.160 1.500E-01 0.500 F -0.148 -0.392 +03° 45' 34.50" 1.000E-01 0.500 F 0.253 -0.019 19.5 V 0.70 0.65 o 691 0.79 Yes Yes
1993RA O C 2009-08-28.39267 1.000E-05 00:12:00.270 1.500E-01 0.500 F -0.149 0.008 +02° 50' 07.70" 1.000E-01 0.500 F 0.248 -0.185 20.2 V 0.70 -0.05 o 691 0.37 Yes Yes
2009SN98 O C 2009-08-28.41033 1.000E-05 00:27:11.840 1.500E-01 0.500 F -0.154 -0.117 -01° 30' 44.70" 1.000E-01 0.500 F 0.205 -0.366 20.6 V 0.70 -0.61 o 691 0.77 Yes Yes
2009SN98 O C 2009-08-28.42795 1.000E-05 00:27:11.450 1.500E-01 0.500 F -0.154 -0.469 -01° 30' 54.10" 1.000E-01 0.500 F 0.205 -0.106 21.0 V 0.70 -0.21 o 691 0.97 Yes Yes
2009SN98 O C 2009-08-28.44555 1.000E-05 00:27:11.100 1.500E-01 0.500 F -0.154 -0.238 -01° 31' 03.70" 1.000E-01 0.500 F 0.205 -0.055 21.1 V 0.70 -0.11 o 691 0.49 Yes Yes
1990TR O C 2009-08-28.46637 1.000E-05 05:31:46.570 1.500E-01 0.500 F -0.071 -0.185 +26° 43' 36.00" 1.000E-01 0.500 F 0.177 -0.086 18.6 V 0.70 0.34 o 691 0.41 Yes Yes
1990TR O C 2009-08-28.47905 1.000E-05 05:31:48.680 1.500E-01 0.500 F -0.071 -0.141 +26° 43' 42.60" 1.000E-01 0.500 F 0.177 -0.084 18.5 V 0.70 0.24 o 691 0.33 Yes Yes
1990TR O C 2009-08-28.49517 1.000E-05 05:31:51.350 1.500E-01 0.500 F -0.071 -0.209 +26° 43' 50.80" 1.000E-01 0.500 F 0.177 -0.252 18.5 V 0.70 0.24 o 691 0.66 Yes Yes
2002QG24 O C 2009-08-29.34270 1.000E-05 00:18:37.130 1.500E-01 0.500 F -0.175 -0.477 -04° 55' 54.90" 1.000E-01 0.500 F 0.245 -0.097 o 691 0.98 Yes No
2002QG24 O C 2009-08-29.36045 1.000E-05 00:18:35.960 1.500E-01 0.500 F -0.175 -0.559 -04° 56' 06.20" 1.000E-01 0.500 F 0.245 -0.009 o 691 1.12 Yes No
2002QG24 O C 2009-08-29.37807 1.000E-05 00:18:34.810 1.500E-01 0.500 F -0.175 -0.451 -04° 56' 17.50" 1.000E-01 0.500 F 0.245 -0.012 o 691 0.91 Yes No
2009OC3 O C 2009-08-29.40013 1.000E-05 00:26:35.130 1.500E-01 0.500 F -0.113 -0.060 +05° 34' 22.00" 1.000E-01 0.500 F 0.249 -0.023 o 691 0.14 Yes No
2009OC3 O C 2009-08-29.41773 1.000E-05 00:26:35.220 1.500E-01 0.500 F -0.113 -0.215 +05° 34' 11.90" 1.000E-01 0.500 F 0.249 0.131 o 691 0.53 Yes No
2009OC3 O C 2009-08-29.43535 1.000E-05 00:26:35.320 1.500E-01 0.500 F -0.113 -0.288 +05° 34' 01.20" 1.000E-01 0.500 F 0.249 -0.253 o 691 0.81 Yes No
1992QN O C 2009-09-12.26727 1.000E-05 00:59:34.000 1.500E-01 0.500 F -0.032 -0.290 +08° 07' 34.40" 1.000E-01 0.500 F 0.333 0.020 o 691 0.58 Yes No
1992QN O C 2009-09-12.28485 1.000E-05 00:59:31.640 1.500E-01 0.500 F -0.032 -0.324 +08° 07' 33.00" 1.000E-01 0.500 F 0.333 0.085 o 691 0.67 Yes No
1992QN O C 2009-09-12.30245 1.000E-05 00:59:29.270 1.500E-01 0.500 F -0.032 -0.371 +08° 07' 31.40" 1.000E-01 0.500 F 0.333 -0.025 o 691 0.74 Yes No
2009RV1 O C 2009-09-12.32945 1.000E-05 01:32:46.610 1.500E-01 0.500 F -0.154 -0.340 +08° 46' 07.90" 1.000E-01 0.500 F 0.235 0.128 20.7 V 0.70 -0.10 o 691 0.74 Yes Yes
2009RV1 O C 2009-09-12.34705 1.000E-05 01:32:50.630 1.500E-01 0.500 F -0.154 0.157 +08° 46' 39.50" 1.000E-01 0.500 F 0.235 0.030 20.7 V 0.70 -0.10 o 691 0.33 Yes Yes
2009RV1 O C 2009-09-12.36464 1.000E-05 01:32:54.600 1.500E-01 0.500 F -0.154 0.007 +08° 47' 10.90" 1.000E-01 0.500 F 0.235 -0.224 20.8 V 0.70 0.00 o 691 0.46 Yes Yes
2001SK162 O C 2009-09-14.27656 1.000E-05 01:15:06.600 1.500E-01 0.500 F -0.246 -0.196 +11° 51' 01.50" 1.000E-01 0.500 F 0.318 -0.734 19.4 V 0.70 -0.08 o 691 1.52 Yes Yes
2001SK162 O C 2009-09-14.29425 1.000E-05 01:15:06.050 1.500E-01 0.500 F -0.246 -0.289 +11° 51' 02.10" 1.000E-01 0.500 F 0.318 -0.222 19.6 V 0.70 0.12 o 691 0.72 Yes Yes
2001SK162 O C 2009-09-14.31897 1.000E-05 01:15:05.300 1.500E-01 0.500 F -0.246 -0.025 +11° 51' 02.10" 1.000E-01 0.500 F 0.318 -0.301 19.9 V 0.70 0.42 o 691 0.60 Yes Yes
2009QZ34 O C 2009-09-15.22623 1.000E-05 00:35:54.940 1.500E-01 0.500 F -0.194 -0.205 +02° 52' 04.80" 1.000E-01 0.500 F 0.171 0.024 19.2 V 0.70 0.22 o 691 0.42 Yes Yes
2009QZ34 O C 2009-09-15.24384 1.000E-05 00:36:00.150 1.500E-01 0.500 F -0.194 0.059 +02° 52' 12.40" 1.000E-01 0.500 F 0.171 -0.080 19.2 V 0.70 0.22 o 691 0.20 Yes Yes
2009QZ34 O C 2009-09-15.26144 1.000E-05 00:36:05.390 1.500E-01 0.500 F -0.183 1.202 +02° 52' 19.90" 1.000E-01 0.500 F 0.238 -0.319 19.3 V 0.70 0.33 o 691 2.53 Yes Yes
1990TG1 O C 2009-09-15.33106 1.000E-05 01:30:08.260 1.500E-01 0.500 F -0.275 -0.079 +12° 36' 47.80" 1.000E-01 0.500 F 0.287 -0.120 18.7 V 0.70 0.28 o 691 0.29 Yes Yes
2007VZ30 O C H 2009-09-15.33106 1.000E-05 01:31:35.480 1.500E-01 0.500 F -0.112 -0.331 +11° 57' 12.90" 1.000E-01 0.500 F 0.304 -0.024 21.5 V 0.70 -0.36 o 691 0.67 Yes Yes
Orpheus O C 2009-09-15.34118 1.000E-05 01:31:52.330 1.500E-01 0.500 F -0.107 1.680 +10° 55' 30.80" 1.000E-01 0.500 F 0.295 -2.529 18.7 V 0.70 -0.34 o 691 6.06 No Yes
2009RV1 O C t 2009-09-15.34613 1.000E-05 01:45:38.400 1.500E-01 0.500 F -0.109 1.442 +10° 22' 25.80" 1.000E-01 0.500 F 0.295 -0.209 21.2 V 0.70 0.61 o 691 2.98 Yes Yes
2007VZ30 O C H 2009-09-15.34875 1.000E-05 01:31:35.190 1.500E-01 0.500 F -0.112 0.009 +11° 57' 16.80" 1.000E-01 0.500 F 0.304 -0.620 21.3 V 0.70 -0.56 o 691 1.25 Yes Yes
1990TG1 O C 2009-09-15.34875 1.000E-05 01:30:07.030 1.500E-01 0.500 F -0.275 -0.147 +12° 36' 38.70" 1.000E-01 0.500 F 0.287 -0.044 18.8 V 0.70 0.38 o 691 0.31 Yes Yes
Orpheus O C 2009-09-15.35888 1.000E-05 01:31:51.670 1.500E-01 0.500 F -0.107 -0.380 +10° 55' 26.50" 1.000E-01 0.500 F 0.295 -0.108 19.1 V 0.70 0.06 o 691 0.79 Yes Yes
2009RV1 O C t 2009-09-15.36381 1.000E-05 01:45:42.960 1.500E-01 0.500 F -0.109 0.076 +10° 23' 01.20" 1.000E-01 0.500 F 0.295 -1.181 20.8 V 0.70 0.22 o 691 2.40 Yes Yes
1990TG1 O C 2009-09-15.36644 1.000E-05 01:30:05.800 1.500E-01 0.500 F -0.275 -0.196 +12° 36' 29.60" 1.000E-01 0.500 F 0.287 0.048 18.5 V 0.70 0.08 o 691 0.40 Yes Yes
2007VZ30 O C H 2009-09-15.36644 1.000E-05 01:31:34.850 1.500E-01 0.500 F -0.112 -0.328 +11° 57' 22.00" 1.000E-01 0.500 F 0.304 0.122 21.5 V 0.70 -0.35 o 691 0.71 Yes Yes
Orpheus O C 2009-09-15.37653 1.000E-05 01:31:51.160 1.500E-01 0.500 F -0.107 -0.189 +10° 55' 19.80" 1.000E-01 0.500 F 0.295 -0.053 19.1 V 0.70 0.06 o 691 0.39 Yes Yes
2009RV1 O C t 2009-09-15.38147 1.000E-05 01:45:47.660 1.500E-01 0.500 F -0.109 0.875 +10° 23' 38.00" 1.000E-01 0.500 F 0.295 -0.672 20.1 V 0.70 -0.48 o 691 2.24 Yes Yes
2000TQ64 O C 2009-09-15.39814 1.000E-05 01:53:17.890 1.500E-01 0.500 F -0.131 -0.246 +10° 07' 40.90" 1.000E-01 0.500 F 0.262 0.340 21.4 V 0.70 -0.07 o 691 0.84 Yes Yes
2000TQ64 O C 2009-09-15.41584 1.000E-05 01:53:16.920 1.500E-01 0.500 F -0.131 -0.079 +10° 07' 38.90" 1.000E-01 0.500 F 0.262 0.050 21.2 V 0.70 -0.27 o 691 0.19 Yes Yes
2000TQ64 O C 2009-09-15.43352 1.000E-05 01:53:15.930 1.500E-01 0.500 F -0.131 -0.221 +10° 07' 37.00" 1.000E-01 0.500 F 0.262 -0.127 21.0 V 0.70 -0.47 o 691 0.51 Yes Yes
2009QS O C H 2009-09-16.11710 1.000E-05 21:38:54.720 1.500E-01 0.500 F -0.062 0.308 -04° 43' 40.60" 1.000E-01 0.500 F 0.210 -0.214 21.5 V 0.70 -0.34 o 691 0.79 Yes Yes
2005YX128 O C 2009-09-16.12268 1.000E-05 21:52:09.110 1.500E-01 0.500 F -0.007 0.307 -02° 50' 42.50" 1.000E-01 0.500 F 0.223 0.004 21.1 V 0.70 0.62 o 691 0.63 Yes Yes
2009QS O C H 2009-09-16.13894 1.000E-05 21:38:55.380 1.500E-01 0.500 F -0.062 -0.428 -04° 43' 30.10" 1.000E-01 0.500 F 0.210 -0.492 21.9 V 0.70 0.06 o 691 1.38 Yes Yes
2005YX128 O C 2009-09-16.14452 1.000E-05 21:52:07.930 1.500E-01 0.500 F -0.007 0.178 -02° 50' 57.50" 1.000E-01 0.500 F 0.223 0.114 21.1 V 0.70 0.62 o 691 0.43 Yes Yes
2009QS O C H 2009-09-16.16074 1.000E-05 21:38:56.110 1.500E-01 0.500 F -0.062 0.069 -04° 43' 19.00" 1.000E-01 0.500 F 0.210 -0.161 21.4 V 0.70 -0.45 o 691 0.37 Yes Yes
2005YX128 O C 2009-09-16.16632 1.000E-05 21:52:06.670 1.500E-01 0.500 F -0.007 -1.116 -02° 51' 12.50" 1.000E-01 0.500 F 0.223 0.178 21.5 V 0.70 1.01 o 691 2.30 Yes Yes
2008VF O C H 2009-09-16.46085 1.000E-05 07:09:44.070 1.500E-01 0.500 F -0.032 0.446 +21° 55' 53.70" 1.000E-01 0.500 F 0.210 0.844 o 691 1.91 Yes No
1991VE O C H 2009-09-16.47847 1.000E-05 07:31:46.130 1.500E-01 0.500 F -0.095 0.078 +23° 08' 17.70" 1.000E-01 0.500 F 0.222 -1.578 o 691 3.16 Yes No
2008VF O C H 2009-09-16.48619 1.000E-05 07:09:48.220 1.500E-01 0.500 F -0.032 0.782 +21° 55' 19.80" 1.000E-01 0.500 F 0.210 0.026 o 691 1.56 Yes No
2005YX128 O C 2009-09-17.14748 1.000E-05 21:51:18.940 1.500E-01 0.500 F -0.007 0.044 -03° 02' 17.60" 1.000E-01 0.500 F 0.223 -0.133 20.7 V 0.70 0.15 o 691 0.28 Yes Yes
2005YX128 O C 2009-09-17.15804 1.000E-05 21:51:18.400 1.500E-01 0.500 F -0.007 -0.082 -03° 02' 24.50" 1.000E-01 0.500 F 0.223 0.011 20.7 V 0.70 0.15 o 691 0.17 Yes Yes
2005YX128 O C 2009-09-17.16859 1.000E-05 21:51:17.870 1.500E-01 0.500 F -0.007 -0.055 -03° 02' 31.60" 1.000E-01 0.500 F 0.223 -0.057 20.6 V 0.70 0.05 o 691 0.16 Yes Yes
2009SU O C 2009-09-17.18811 1.000E-05 00:15:20.550 1.500E-01 0.500 F -0.193 -0.389 +02° 19' 27.30" 1.000E-01 0.500 F 0.340 0.352 21.1 V 0.70 0.47 o 691 1.06 Yes Yes
2007RQ17 O C 2009-09-17.19073 1.000E-05 00:00:53.250 1.500E-01 0.500 F -0.143 0.109 +00° 36' 56.50" 1.000E-01 0.500 F 0.256 -0.247 19.9 V 0.70 0.59 o 691 0.54 Yes Yes
1993RA O C 2009-09-17.19319 1.000E-05 00:05:49.810 1.500E-01 0.500 F -0.161 0.048 -00° 53' 05.60" 1.000E-01 0.500 F 0.220 -0.047 19.4 V 0.70 0.44 o 691 0.13 Yes Yes
2009SU O C 2009-09-17.20580 1.000E-05 00:15:22.120 1.500E-01 0.500 F -0.193 -0.106 +02° 18' 48.40" 1.000E-01 0.500 F 0.340 -0.142 21.1 V 0.70 0.47 o 691 0.36 Yes Yes
2007RQ17 O C 2009-09-17.20841 1.000E-05 00:00:52.200 1.500E-01 0.500 F -0.143 -0.095 +00° 37' 05.50" 1.000E-01 0.500 F 0.256 -0.090 20.1 V 0.70 0.79 o 691 0.26 Yes Yes
1993RA O C 2009-09-17.21087 1.000E-05 00:05:49.030 1.500E-01 0.500 F -0.161 -0.368 -00° 53' 22.70" 1.000E-01 0.500 F 0.220 -0.173 19.2 V 0.70 0.24 o 691 0.82 Yes Yes
2009SU O C 2009-09-17.22349 1.000E-05 00:15:23.630 1.500E-01 0.500 F -0.193 -0.419 +02° 18' 09.70" 1.000E-01 0.500 F 0.340 -0.441 20.8 V 0.70 0.17 o 691 1.24 Yes Yes
2007RQ17 O C 2009-09-17.22610 1.000E-05 00:00:51.110 1.500E-01 0.500 F -0.143 -0.525 +00° 37' 14.10" 1.000E-01 0.500 F 0.256 -0.321 19.8 V 0.70 0.49 o 691 1.24 Yes Yes
1993RA O C 2009-09-17.22856 1.000E-05 00:05:48.280 1.500E-01 0.500 F -0.161 -0.192 -00° 53' 39.80" 1.000E-01 0.500 F 0.220 -0.282 19.1 V 0.70 0.14 o 691 0.69 Yes Yes
2006SP134 O C 2009-09-17.24015 1.000E-05 01:05:06.410 1.500E-01 0.500 F -0.303 -0.962 +04° 19' 22.80" 1.000E-01 0.500 F 0.250 0.586 20.8 V 0.70 -0.66 o 691 2.26 Yes Yes
2001SX169 O C 2009-09-17.24752 1.000E-05 01:26:48.120 1.500E-01 0.500 F -0.121 0.033 +04° 21' 55.20" 1.000E-01 0.500 F 0.219 -0.362 21.0 V 0.70 0.50 o 691 0.73 Yes Yes
2006SP134 O C 2009-09-17.25775 1.000E-05 01:05:05.250 1.500E-01 0.500 F -0.303 0.487 +04° 19' 16.40" 1.000E-01 0.500 F 0.250 -0.114 21.5 V 0.70 0.04 o 691 1.00 Yes Yes
2001SX169 O C 2009-09-17.26512 1.000E-05 01:26:46.760 1.500E-01 0.500 F -0.121 -0.399 +04° 21' 44.80" 1.000E-01 0.500 F 0.219 -0.210 20.8 V 0.70 0.30 o 691 0.91 Yes Yes
2006SP134 O C 2009-09-17.27534 1.000E-05 01:05:03.910 1.500E-01 0.500 F -0.303 -0.736 +04° 19' 11.10" 1.000E-01 0.500 F 0.250 0.287 21.4 V 0.70 -0.06 o 691 1.59 Yes Yes
2001SX169 O C 2009-09-17.28271 1.000E-05 01:26:45.470 1.500E-01 0.500 F -0.121 0.283 +04° 21' 34.60" 1.000E-01 0.500 F 0.219 0.147 20.2 V 0.70 -0.30 o 691 0.64 Yes Yes
1998SO10 O C 2009-09-17.40760 1.000E-05 02:09:02.010 1.500E-01 0.500 F -0.081 -1.419 +09° 03' 49.60" 1.000E-01 0.500 F 0.189 -1.128 20.5 V 0.70 -0.46 o 691 3.62 No Yes
1998SO10 O C 2009-09-17.42520 1.000E-05 02:09:01.240 1.500E-01 0.500 F -0.081 -0.223 +09° 03' 40.70" 1.000E-01 0.500 F 0.189 -0.238 20.7 V 0.70 -0.26 o 691 0.65 Yes Yes
1998SO10 O C 2009-09-17.44281 1.000E-05 02:09:00.390 1.500E-01 0.500 F -0.081 -0.203 +09° 03' 31.00" 1.000E-01 0.500 F 0.189 -0.135 20.7 V 0.70 -0.26 o 691 0.49 Yes Yes
2001QK142 O C 2009-09-17.46953 1.000E-05 07:23:52.710 1.500E-01 0.612 F -0.068 0.011 +24° 51' 51.70" 1.000E-01 0.612 F 0.207 -0.045 20.1 V 0.70 -0.12 o 691 0.08 Yes Yes
2001QK142 O C 2009-09-17.47201 1.000E-05 07:23:53.040 1.500E-01 0.612 F -0.068 -0.163 +24° 51' 51.00" 1.000E-01 0.612 F 0.207 -0.635 20.1 V 0.70 -0.12 o 691 1.07 Yes Yes
2001QK142 O C 2009-09-17.48220 1.000E-05 07:23:54.420 1.500E-01 0.612 F -0.068 -0.540 +24° 51' 50.40" 1.000E-01 0.612 F 0.207 -0.778 20.1 V 0.70 -0.12 o 691 1.55 Yes Yes
2001QK142 O C 2009-09-17.48467 1.000E-05 07:23:54.790 1.500E-01 0.612 F -0.068 -0.145 +24° 51' 51.10" 1.000E-01 0.612 F 0.207 0.033 20.2 V 0.70 -0.02 o 691 0.24 Yes Yes
2001QK142 O C 2009-09-17.49486 1.000E-05 07:23:56.200 1.500E-01 0.612 F -0.068 -0.092 +24° 51' 50.80" 1.000E-01 0.612 F 0.207 0.196 20.1 V 0.70 -0.12 o 691 0.35 Yes Yes
2001QK142 O C 2009-09-17.49733 1.000E-05 07:23:56.520 1.500E-01 0.612 F -0.068 -0.373 +24° 51' 50.20" 1.000E-01 0.612 F 0.207 -0.290 20.4 V 0.70 0.18 o 691 0.77 Yes Yes
2008JO O C 2009-09-18.12491 1.000E-05 21:57:57.830 1.500E-01 0.500 F -0.057 -0.142 +02° 18' 14.50" 1.000E-01 0.500 F 0.268 -0.117 19.3 V 0.70 0.26 o 691 0.37 Yes Yes
2008JO O C 2009-09-18.14953 1.000E-05 21:57:53.930 1.500E-01 0.500 F -0.057 -1.287 +02° 17' 56.90" 1.000E-01 0.500 F 0.268 -1.651 18.9 V 0.70 -0.14 o 691 4.16 No Yes
2008JO O C 2009-09-18.17415 1.000E-05 21:57:50.180 1.500E-01 0.500 F -0.057 -0.027 +02° 17' 42.40" 1.000E-01 0.500 F 0.268 -0.064 19.1 V 0.70 0.06 o 691 0.14 Yes Yes
2001SK162 O C 2009-09-18.24540 1.000E-05 01:12:56.860 1.500E-01 0.500 F -0.246 -0.174 +11° 48' 51.70" 1.000E-01 0.500 F 0.302 0.094 19.5 V 0.70 0.24 o 691 0.39 Yes Yes
2001SK162 O C 2009-09-18.26305 1.000E-05 01:12:56.130 1.500E-01 0.500 F -0.246 -0.176 +11° 48' 50.60" 1.000E-01 0.500 F 0.302 -0.012 19.5 V 0.70 0.24 o 691 0.35 Yes Yes
2001SK162 O C 2009-09-18.28073 1.000E-05 01:12:55.390 1.500E-01 0.500 F -0.246 -0.217 +11° 48' 49.60" 1.000E-01 0.500 F 0.302 0.009 19.6 V 0.70 0.34 o 691 0.43 Yes Yes
2009RG2 O C t 2009-09-18.30756 1.000E-05 01:20:31.720 1.500E-01 0.500 F -0.230 -0.154 +13° 19' 16.40" 1.000E-01 0.500 F 0.239 -0.109 19.0 V 0.70 -0.05 o 691 0.47 Yes Yes
2009RG2 O C t 2009-09-18.32525 1.000E-05 01:20:56.410 1.500E-01 0.500 F -0.230 0.370 +13° 24' 54.30" 1.000E-01 0.500 F 0.239 -0.528 19.1 V 0.70 0.05 o 691 1.47 Yes Yes
Seleucus O C 2009-09-18.40874 1.000E-05 02:11:19.440 1.500E-01 0.500 F -0.261 -0.453 +15° 35' 28.40" 1.000E-01 0.500 F 0.263 -0.258 19.9 V 0.70 -0.09 o 691 1.04 Yes Yes
Seleucus O C 2009-09-18.42642 1.000E-05 02:11:18.760 1.500E-01 0.500 F -0.261 -0.081 +15° 35' 24.10" 1.000E-01 0.500 F 0.263 -0.376 20.0 V 0.70 0.01 o 691 0.77 Yes Yes
Seleucus O C 2009-09-18.44410 1.000E-05 02:11:18.050 1.500E-01 0.500 F -0.261 -0.141 +15° 35' 20.10" 1.000E-01 0.500 F 0.263 -0.179 20.0 V 0.70 0.01 o 691 0.46 Yes Yes
1998XX2 O C H 2009-09-18.47604 1.000E-05 07:38:43.030 1.500E-01 0.500 F -0.037 -0.092 +18° 35' 10.60" 1.000E-01 0.500 F 0.195 -0.988 o 691 1.99 Yes No
1990TG1 O C 2009-09-19.28452 1.000E-05 01:25:33.890 1.500E-01 0.500 F -0.220 -0.180 +12° 01' 16.60" 1.000E-01 0.500 F 0.283 0.136 o 691 0.45 Yes No
2007VZ30 O C H 2009-09-19.28698 1.000E-05 01:30:24.910 1.500E-01 0.500 F -0.275 0.702 +12° 11' 59.70" 1.000E-01 0.500 F 0.287 0.454 21.3 V 0.70 -0.37 o 691 1.69 Yes Yes
Orpheus O C H 2009-09-19.29707 1.000E-05 01:29:55.380 1.500E-01 0.500 F -0.054 -0.345 +10° 25' 34.70" 1.000E-01 0.500 F 0.288 1.156 18.3 V 0.70 -0.46 o 691 2.42 Yes Yes
1990TG1 O C 2009-09-19.30216 1.000E-05 01:25:32.600 1.500E-01 0.500 F -0.220 -0.183 +12° 01' 06.70" 1.000E-01 0.500 F 0.283 0.001 o 691 0.37 Yes No
Orpheus O C H 2009-09-19.31474 1.000E-05 01:29:54.580 1.500E-01 0.500 F -0.054 -0.316 +10° 25' 24.20" 1.000E-01 0.500 F 0.288 -0.188 o 691 0.74 Yes No
1990TG1 O C 2009-09-19.31982 1.000E-05 01:25:31.310 1.500E-01 0.500 F -0.220 -0.134 +12° 00' 56.90" 1.000E-01 0.500 F 0.283 -0.009 o 691 0.27 Yes No
2007VZ30 O C H 2009-09-19.32230 1.000E-05 01:30:23.880 1.500E-01 0.500 F -0.275 0.758 +12° 12' 05.60" 1.000E-01 0.500 F 0.287 -0.965 21.5 V 0.70 -0.17 o 691 2.47 Yes Yes
Orpheus O C H 2009-09-19.33242 1.000E-05 01:29:53.770 1.500E-01 0.500 F -0.054 -0.312 +10° 25' 14.60" 1.000E-01 0.500 F 0.288 -0.574 o 691 1.31 Yes No
2008JO O C 2009-09-20.11786 1.000E-05 21:52:58.790 1.500E-01 0.500 F -0.037 -0.216 +01° 56' 04.20" 1.000E-01 0.500 F 0.206 0.036 19.2 V 0.70 0.15 o 691 0.44 Yes Yes
2003EF54 O C 2009-09-20.11786 1.000E-05 21:58:43.070 1.500E-01 0.500 F -0.057 -0.254 +02° 14' 11.60" 1.000E-01 0.500 F 0.268 0.151 19.1 V 0.70 0.43 o 691 0.60 Yes Yes
2005YX128 O C H 2009-09-20.12568 1.000E-05 21:49:13.610 1.500E-01 0.500 F 0.035 0.317 -03° 33' 36.00" 1.000E-01 0.500 F 0.223 -0.418 20.5 V 0.70 -0.25 o 691 1.06 Yes Yes
2003EF54 O C 2009-09-20.14212 1.000E-05 21:58:45.270 1.500E-01 0.500 F -0.057 -0.352 +02° 13' 51.90" 1.000E-01 0.500 F 0.268 0.142 18.9 V 0.70 0.22 o 691 0.76 Yes Yes
2008JO O C 2009-09-20.14212 1.000E-05 21:52:55.060 1.500E-01 0.500 F -0.037 -0.185 +01° 55' 47.80" 1.000E-01 0.500 F 0.206 0.093 19.2 V 0.70 0.15 o 691 0.42 Yes Yes
2005YX128 O C H 2009-09-20.14994 1.000E-05 21:49:12.590 1.500E-01 0.500 F 0.035 -0.341 -03° 33' 50.00" 1.000E-01 0.500 F 0.223 0.075 21.0 V 0.70 0.25 o 691 0.71 Yes Yes
2008JO O C t 2009-09-20.15798 1.000E-05 21:52:52.650 1.500E-01 0.500 F -0.037 0.344 +01° 55' 36.20" 1.000E-01 0.500 F 0.206 -0.739 19.2 V 0.70 0.15 o 691 1.64 Yes Yes
2003EF54 O C 2009-09-20.16636 1.000E-05 21:58:47.460 1.500E-01 0.500 F -0.057 -0.218 +02° 13' 32.30" 1.000E-01 0.500 F 0.268 0.210 19.0 V 0.70 0.32 o 691 0.61 Yes Yes
2008JO O C 2009-09-20.16636 1.000E-05 21:52:51.320 1.500E-01 0.500 F -0.037 -0.204 +01° 55' 31.30" 1.000E-01 0.500 F 0.206 0.053 19.4 V 0.70 0.34 o 691 0.42 Yes Yes
2005YX128 O C H 2009-09-20.17169 1.000E-05 21:49:11.730 1.500E-01 0.500 F 0.035 -0.066 -03° 34' 03.90" 1.000E-01 0.500 F 0.223 -0.852 20.8 V 0.70 0.05 o 691 1.74 Yes Yes
2009RB4 O C 2009-09-20.30466 1.000E-05 01:21:23.970 1.500E-01 0.500 F -0.296 -0.360 +06° 29' 21.70" 1.000E-01 0.500 F 0.207 0.170 20.2 V 0.70 0.69 o 691 0.80 Yes Yes
2009RB4 O C 2009-09-20.32228 1.000E-05 01:21:22.640 1.500E-01 0.500 F -0.296 -0.561 +06° 29' 02.00" 1.000E-01 0.500 F 0.207 -0.049 19.6 V 0.70 0.09 o 691 1.13 Yes Yes
2009RB4 O C 2009-09-20.33990 1.000E-05 01:21:21.340 1.500E-01 0.500 F -0.296 -0.269 +06° 28' 42.90" 1.000E-01 0.500 F 0.207 0.349 19.5 V 0.70 -0.01 o 691 0.88 Yes Yes
2005CK38 O C H 2009-09-20.42375 1.000E-05 02:19:43.420 1.500E-01 0.500 F -0.230 -0.441 +17° 25' 35.10" 1.000E-01 0.500 F 0.233 -0.708 21.8 V 0.70 -0.14 o 691 1.69 Yes Yes
2005CK38 O C H 2009-09-20.44160 1.000E-05 02:19:42.550 1.500E-01 0.500 F -0.230 -1.744 +17° 25' 34.20" 1.000E-01 0.500 F 0.233 -0.829 21.6 V 0.70 -0.34 o 691 3.86 No Yes
2005CK38 O C H 2009-09-20.45926 1.000E-05 02:19:41.900 1.500E-01 0.500 F -0.230 -0.018 +17° 25' 33.60" 1.000E-01 0.500 F 0.233 -0.643 o 691 1.30 Yes No
2004QT24 O C H 2009-09-20.47294 1.000E-05 07:13:58.430 1.500E-01 0.500 F -0.052 -0.113 +22° 21' 45.60" 1.000E-01 0.500 F 0.243 -1.803 o 691 3.61 No No
2004QT24 O C H 2009-09-20.48562 1.000E-05 07:14:02.790 1.500E-01 0.500 F -0.052 0.264 +22° 21' 59.60" 1.000E-01 0.500 F 0.243 -1.719 o 691 3.48 No No
2004QT24 O C H 2009-09-20.49831 1.000E-05 07:14:07.090 1.500E-01 0.500 F -0.052 -0.195 +22° 22' 14.30" 1.000E-01 0.500 F 0.243 -0.922 o 691 1.89 Yes No
2003TK O C H 2009-09-21.36763 1.000E-05 01:45:02.090 1.500E-01 0.500 F -0.318 0.352 +19° 18' 58.10" 1.000E-01 0.500 F 0.292 -0.512 21.4 V 0.70 -0.24 o 691 1.26 Yes Yes
2003TK O C H 2009-09-21.38530 1.000E-05 01:45:00.730 1.500E-01 0.500 F -0.318 -0.235 +19° 18' 51.30" 1.000E-01 0.500 F 0.292 -0.519 20.8 V 0.70 -0.84 o 691 1.18 Yes Yes
2003TK O C H 2009-09-21.40298 1.000E-05 01:44:59.440 1.500E-01 0.500 F -0.318 0.186 +19° 18' 44.70" 1.000E-01 0.500 F 0.292 -0.284 21.2 V 0.70 -0.44 o 691 0.69 Yes Yes
1998SO10 O C 2009-09-21.41888 1.000E-05 02:05:44.670 1.500E-01 0.500 F -0.110 -0.248 +08° 25' 51.40" 1.000E-01 0.500 F 0.193 -0.162 20.5 V 0.70 -0.41 o 691 0.59 Yes Yes
1998SO10 O C 2009-09-21.43947 1.000E-05 02:05:43.600 1.500E-01 0.500 F -0.110 -0.115 +08° 25' 39.50" 1.000E-01 0.500 F 0.193 -0.115 20.6 V 0.70 -0.31 o 691 0.33 Yes Yes
1998SO10 O C 2009-09-21.45709 1.000E-05 02:05:42.670 1.500E-01 0.500 F -0.110 -0.219 +08° 25' 29.10" 1.000E-01 0.500 F 0.193 -0.284 20.7 V 0.70 -0.21 o 691 0.72 Yes Yes
2000OG8 O C H 2009-09-21.49028 1.000E-05 07:37:31.950 1.500E-01 0.500 F -0.063 0.147 +24° 44' 43.20" 1.000E-01 0.500 F 0.172 0.211 21.2 V 0.70 0.02 o 691 0.51 Yes Yes
2001QK142 O C 2009-09-21.49028 1.000E-05 07:33:00.470 1.500E-01 0.500 F -0.094 -0.186 +24° 47' 41.70" 1.000E-01 0.500 F 0.222 -0.144 20.4 V 0.70 0.15 o 691 0.47 Yes Yes
2000OG8 O C H 2009-09-21.50303 1.000E-05 07:37:33.590 1.500E-01 0.500 F -0.063 -0.056 +24° 44' 38.30" 1.000E-01 0.500 F 0.172 -0.089 21.0 V 0.70 -0.18 o 691 0.21 Yes Yes
2001QK142 O C 2009-09-21.50303 1.000E-05 07:33:02.140 1.500E-01 0.500 F -0.094 -0.291 +24° 47' 40.90" 1.000E-01 0.500 F 0.222 -0.174 20.6 V 0.70 0.35 o 691 0.68 Yes Yes
2001QK142 O C 2009-09-21.51578 1.000E-05 07:33:03.800 1.500E-01 0.500 F -0.094 -0.509 +24° 47' 40.40" 1.000E-01 0.500 F 0.222 0.105 20.6 V 0.70 0.35 o 691 1.04 Yes Yes
2008JO O C 2009-09-22.12064 1.000E-05 21:48:02.290 1.500E-01 0.500 F 0.047 -0.241 +01° 33' 01.00" 1.000E-01 0.500 F 0.188 -0.098 19.2 V 0.70 0.13 o 691 0.52 Yes Yes
2000SU180 O C H 2009-09-22.12614 1.000E-05 21:46:32.710 1.500E-01 0.500 F 0.060 -0.328 -07° 18' 21.40" 1.000E-01 0.500 F 0.289 -0.574 21.1 V 0.70 -0.20 o 691 1.33 Yes Yes
2008JO O C 2009-09-22.13449 1.000E-05 21:48:00.190 1.500E-01 0.500 F 0.047 -0.263 +01° 32' 51.40" 1.000E-01 0.500 F 0.188 -0.014 19.2 V 0.70 0.13 o 691 0.53 Yes Yes
2000SU180 O C H 2009-09-22.13997 1.000E-05 21:46:31.350 1.500E-01 0.500 F 0.060 -0.319 -07° 18' 21.90" 1.000E-01 0.500 F 0.289 0.853 21.4 V 0.70 0.10 o 691 1.83 Yes Yes
2008JO O C 2009-09-22.14833 1.000E-05 21:47:58.090 1.500E-01 0.500 F 0.047 -0.262 +01° 32' 41.50" 1.000E-01 0.500 F 0.188 -0.234 19.1 V 0.70 0.03 o 691 0.71 Yes Yes
2000SU180 O C H 2009-09-22.15381 1.000E-05 21:46:30.030 1.500E-01 0.500 F 0.060 0.319 -07° 18' 24.80" 1.000E-01 0.500 F 0.289 -0.127 o 691 0.69 Yes No
2005YX128 O C 2009-09-22.16896 1.000E-05 21:48:03.920 1.500E-01 0.500 F 0.035 0.035 -03° 53' 06.50" 1.000E-01 0.500 F 0.223 0.146 20.8 V 0.70 -0.08 o 691 0.31 Yes Yes
2009RZ3 O C 2009-09-22.16896 1.000E-05 21:48:14.260 1.500E-01 0.500 F 0.035 0.102 -03° 44' 05.90" 1.000E-01 0.500 F 0.223 -0.306 19.8 V 0.70 0.10 o 691 0.66 Yes Yes
2005YX128 O C 2009-09-22.18225 1.000E-05 21:48:03.480 1.500E-01 0.500 F 0.035 0.241 -03° 53' 13.50" 1.000E-01 0.500 F 0.223 0.470 20.7 V 0.70 -0.18 o 691 1.07 Yes Yes
2009RZ3 O C 2009-09-22.18225 1.000E-05 21:48:10.140 1.500E-01 0.500 F 0.035 0.070 -03° 43' 43.40" 1.000E-01 0.500 F 0.223 -0.371 19.9 V 0.70 0.20 o 691 0.77 Yes Yes
2005YX128 O C 2009-09-22.19303 1.000E-05 21:48:03.090 1.500E-01 0.500 F 0.035 -0.084 -03° 53' 19.60" 1.000E-01 0.500 F 0.223 0.305 20.6 V 0.70 -0.28 o 691 0.64 Yes Yes
2009RZ3 O C 2009-09-22.19303 1.000E-05 21:48:06.780 1.500E-01 0.500 F 0.035 -0.216 -03° 43' 24.90" 1.000E-01 0.500 F 0.223 -0.180 19.7 V 0.70 0.00 o 691 0.57 Yes Yes
2009SK O C t 2009-09-22.26003 1.000E-05 01:01:34.810 1.500E-01 0.500 F -0.153 -0.677 +12° 06' 37.00" 1.000E-01 0.500 F 0.335 -0.916 19.8 V 0.70 0.00 o 691 2.51 Yes Yes
2003SA224 O C 2009-09-22.27260 1.000E-05 01:07:02.140 1.500E-01 0.500 F -0.083 -0.323 +10° 28' 23.70" 1.000E-01 0.500 F 0.342 0.002 18.6 V 0.70 0.35 o 691 0.65 Yes Yes
2009SK O C t 2009-09-22.27770 1.000E-05 01:01:51.780 1.500E-01 0.500 F -0.153 0.886 +12° 08' 44.00" 1.000E-01 0.500 F 0.335 -0.594 19.8 V 0.70 -0.01 o 691 2.25 Yes Yes
2003SA224 O C 2009-09-22.29039 1.000E-05 01:07:00.540 1.500E-01 0.500 F -0.083 -0.246 +10° 28' 26.40" 1.000E-01 0.500 F 0.342 0.051 18.5 V 0.70 0.25 o 691 0.50 Yes Yes
2009SK O C t 2009-09-22.29549 1.000E-05 01:02:08.680 1.500E-01 0.500 F -0.153 0.598 +12° 10' 51.30" 1.000E-01 0.500 F 0.335 -0.355 o 691 1.46 Yes No
2003SA224 O C 2009-09-22.30808 1.000E-05 01:06:58.930 1.500E-01 0.500 F -0.083 -0.400 +10° 28' 29.10" 1.000E-01 0.500 F 0.342 0.134 18.6 V 0.70 0.35 o 691 0.85 Yes Yes
1998SO10 O C 2009-09-22.37961 1.000E-05 02:04:55.080 1.500E-01 0.500 F -0.110 -0.237 +08° 16' 32.00" 1.000E-01 0.500 F 0.193 -0.246 20.7 V 0.70 -0.20 o 691 0.68 Yes Yes
1998SO10 O C 2009-09-22.39725 1.000E-05 02:04:54.120 1.500E-01 0.500 F -0.110 -0.522 +08° 16' 21.90" 1.000E-01 0.500 F 0.193 -0.033 20.9 V 0.70 0.00 o 691 1.05 Yes Yes
1998SO10 O C 2009-09-22.41489 1.000E-05 02:04:53.230 1.500E-01 0.500 F -0.110 0.235 +08° 16' 11.60" 1.000E-01 0.500 F 0.193 -0.013 20.8 V 0.70 -0.10 o 691 0.47 Yes Yes
1996MO O C H 2009-09-22.41997 1.000E-05 01:55:04.710 1.500E-01 0.500 F -0.161 0.259 +06° 13' 02.10" 1.000E-01 0.500 F 0.136 0.488 21.8 V 0.70 -0.14 o 691 1.11 Yes Yes
Seleucus O C 2009-09-22.43346 1.000E-05 02:08:33.550 1.500E-01 0.500 F -0.251 -0.041 +15° 18' 24.80" 1.000E-01 0.500 F 0.197 -0.117 19.7 V 0.70 -0.21 o 691 0.25 Yes Yes
2009RV1 O C 2009-09-22.43839 1.000E-05 02:25:24.600 1.500E-01 0.500 F -0.151 -0.559 +15° 06' 09.70" 1.000E-01 0.500 F 0.266 -0.514 20.0 V 0.70 -0.13 o 691 1.55 Yes Yes
Seleucus O C 2009-09-22.45113 1.000E-05 02:08:32.740 1.500E-01 0.500 F -0.251 -0.130 +15° 18' 20.00" 1.000E-01 0.500 F 0.197 -0.071 19.8 V 0.70 -0.11 o 691 0.30 Yes Yes
2009RV1 O C 2009-09-22.45606 1.000E-05 02:25:31.540 1.500E-01 0.500 F -0.151 -0.762 +15° 06' 58.40" 1.000E-01 0.500 F 0.266 -0.553 20.0 V 0.70 -0.13 o 691 1.92 Yes Yes
Seleucus O C 2009-09-22.46882 1.000E-05 02:08:31.930 1.500E-01 0.500 F -0.251 -0.215 +15° 18' 15.00" 1.000E-01 0.500 F 0.197 -0.205 19.8 V 0.70 -0.11 o 691 0.60 Yes Yes
2009RV1 O C 2009-09-22.47375 1.000E-05 02:25:38.560 1.500E-01 0.500 F -0.151 -0.169 +15° 07' 47.50" 1.000E-01 0.500 F 0.266 -0.161 20.2 V 0.70 0.07 o 691 0.48 Yes Yes
2009SV O C H 2009-09-23.13923 1.000E-05 23:18:36.170 1.500E-01 0.500 F -0.149 -0.961 +05° 05' 31.30" 1.000E-01 0.500 F 0.103 -0.376 21.4 V 0.70 0.00 o 691 2.10 Yes Yes
2009SV O C H 2009-09-23.15433 1.000E-05 23:18:35.170 1.500E-01 0.500 F -0.149 1.137 +05° 05' 05.20" 1.000E-01 0.500 F 0.103 -0.584 20.9 V 0.70 -0.50 o 691 2.61 Yes Yes
1992QN O C 2009-09-23.17672 1.000E-05 00:33:32.640 1.500E-01 0.500 F -0.210 -0.165 +07° 34' 15.60" 1.000E-01 0.500 F 0.219 0.061 18.0 V 0.70 0.55 o 691 0.35 Yes Yes
2009SW19 O C 2009-09-23.18426 1.000E-05 00:31:52.890 1.500E-01 0.500 F -0.192 -0.531 +06° 58' 11.40" 1.000E-01 0.500 F 0.279 -0.252 19.8 V 0.70 0.24 o 691 1.19 Yes Yes
1992QN O C 2009-09-23.19437 1.000E-05 00:33:29.900 1.500E-01 0.500 F -0.210 -0.158 +07° 34' 11.10" 1.000E-01 0.500 F 0.219 0.137 18.3 V 0.70 0.85 o 691 0.42 Yes Yes
2009SW19 O C 2009-09-23.20192 1.000E-05 00:31:49.660 1.500E-01 0.500 F -0.192 -0.006 +06° 56' 27.40" 1.000E-01 0.500 F 0.279 0.000 19.7 V 0.70 0.14 o 691 0.01 Yes Yes
1992QN O C 2009-09-23.21203 1.000E-05 00:33:27.140 1.500E-01 0.500 F -0.210 -0.307 +07° 34' 07.00" 1.000E-01 0.500 F 0.219 0.635 18.0 V 0.70 0.55 o 691 1.41 Yes Yes
2009SW19 O C 2009-09-23.21957 1.000E-05 00:31:46.390 1.500E-01 0.500 F -0.192 0.018 +06° 54' 43.00" 1.000E-01 0.500 F 0.279 -0.193 19.5 V 0.70 -0.06 o 691 0.39 Yes Yes
1990TG1 O C 2009-09-23.28942 1.000E-05 01:20:41.990 1.500E-01 0.500 F -0.218 -0.154 +11° 23' 06.50" 1.000E-01 0.500 F 0.319 0.103 18.6 V 0.70 0.28 o 691 0.37 Yes Yes
Orpheus O C 2009-09-23.30203 1.000E-05 01:26:49.740 1.500E-01 0.500 F -0.150 -0.100 +09° 45' 03.40" 1.000E-01 0.500 F 0.277 -0.081 18.8 V 0.70 0.34 o 691 0.26 Yes Yes
1990TG1 O C 2009-09-23.30713 1.000E-05 01:20:40.640 1.500E-01 0.500 F -0.218 -0.189 +11° 22' 56.10" 1.000E-01 0.500 F 0.319 0.039 18.6 V 0.70 0.28 o 691 0.39 Yes Yes
Orpheus O C 2009-09-23.31970 1.000E-05 01:26:48.620 1.500E-01 0.500 F -0.150 0.009 +09° 44' 51.20" 1.000E-01 0.500 F 0.277 -0.239 18.4 V 0.70 -0.06 o 691 0.48 Yes Yes
1990TG1 O C 2009-09-23.32480 1.000E-05 01:20:39.290 1.500E-01 0.500 F -0.218 -0.248 +11° 22' 45.70" 1.000E-01 0.500 F 0.319 -0.035 18.6 V 0.70 0.28 o 691 0.50 Yes Yes
Orpheus O C 2009-09-23.33738 1.000E-05 01:26:47.480 1.500E-01 0.500 F -0.150 -0.071 +09° 44' 39.40" 1.000E-01 0.500 F 0.277 0.067 18.7 V 0.70 0.24 o 691 0.20 Yes Yes
2000TQ64 O C H 2009-09-23.35764 1.000E-05 01:45:21.720 1.500E-01 0.500 F -0.079 -0.505 +09° 50' 30.30" 1.000E-01 0.500 F 0.272 -0.343 o 691 1.23 Yes No
2000TQ64 O C H 2009-09-23.37531 1.000E-05 01:45:20.560 1.500E-01 0.500 F -0.079 0.147 +09° 50' 28.00" 1.000E-01 0.500 F 0.272 0.186 o 691 0.47 Yes No
2000TQ64 O C H 2009-09-23.39301 1.000E-05 01:45:19.310 1.500E-01 0.500 F -0.079 -0.494 +09° 50' 24.80" 1.000E-01 0.500 F 0.272 -0.167 20.8 V 0.70 -0.53 o 691 1.05 Yes Yes
1991WA O C 2009-09-23.47311 1.000E-05 07:32:25.230 1.500E-01 0.500 F -0.003 -0.416 +19° 00' 49.80" 1.000E-01 0.500 F 0.191 -0.313 19.6 V 0.70 0.05 o 691 1.04 Yes Yes

[1-200] [201-400] [401-600] [601-800] [801-1000] [1001-1200] [1201-1400] [1401-1600] [1601-1800] [1801-2000] [2001-2200] [2201-2400] [2401-2600] [2601-2800] [2801-3000] [3001-3200] [3201-3400] [3401-3600] [3601-3800] [3801-4000] [4001-4200] [4201-4400] [4401-4600] [4601-4800] [4801-5000] [5001-5200] [5201-5400] [5401-5600] [5601-5800] [5801-6000] [6001-6200] [6201-6400] [6401-6600] [6601-6800] [6801-7000] [7001-7200] [7201-7400] [7401-7600] [7601-7800] [7801-8000] [8001-8200] [8201-8400] [8401-8600] [8601-8800] [8801-9000] [9001-9200] [9201-9400] [9401-9600] [9601-9800] [9801-10000] [10001-10200] [10201-10400] [10401-10600] [10601-10800] [10801-11000] [11001-11200] [11201-11400] [11401-11600] [11601-11800] [11801-12000] [12001-12200] [12201-12400] [12401-12600] [12601-12800] [12801-13000] [13001-13200] [13201-13400] [13401-13600] [13601-13800] [13801-14000] [14001-14200] [14201-14400] [14401-14600] [14601-14800] [14801-15000] [15001-15200] [15201-15400] [15401-15600] [15601-15800] [15801-16000] [16001-16200] [16201-16400] [16401-16600] [16601-16800] [16801-17000] [17001-17200] [17201-17400] [17401-17600] [17601-17800] [17801-18000] [18001-18200] [18201-18400] [18401-18600] [18601-18800] [18801-19000] [19001-19200] [19201-19400] [19401-19600] [19601-19800] [19801-20000] [20001-20200] [20201-20400] [20401-20600] [20601-20800] [20801-21000] [21001-21200] [21201-21400] [21401-21600] [21601-21800] [21801-22000] [22001-22200] [22201-22400] [22401-22600] [22601-22800] [22801-23000] [23001-23200] [23201-23400] [23401-23600] [23601-23800] [23801-24000] [24001-24200] [24201-24400] [24401-24600] [24601-24800] [24801-25000] [25001-25200] [25201-25400] [25401-25600] [25601-25800] [25801-26000] [26001-26200] [26201-26400] [26401-26600] [26601-26800] [26801-27000] [27001-27200] [27201-27400] [27401-27600] [27601-27800] [27801-28000] [28001-28200] [28201-28400] [28401-28600] [28601-28800] [28801-29000] [29001-29200] [29201-29400] [29401-29600] [29601-29800] [29801-30000] [30001-30200] [30201-30400] [30401-30600] [30601-30800] [30801-31000] [31001-31200] [31201-31400] [31401-31600] [31601-31800] [31801-32000] [32001-32200] [32201-32400] [32401-32600] [32601-32800] [32801-33000] [33001-33200] [33201-33400] [33401-33600] [33601-33800] [33801-34000] [34001-34200] [34201-34400] [34401-34600] [34601-34800] [34801-35000] [35001-35200] [35201-35400] [35401-35600] [35601-35800] [35801-36000] [36001-36200] [36201-36400] [36401-36600] [36601-36800] [36801-37000] [37001-37200] [37201-37400] [37401-37600] [37601-37800] [37801-38000] [38001-38200] [38201-38400] [38401-38600] [38601-38800] [38801-39000] [39001-39200] [39201-39400] [39401-39600] [39601-39800] [39801-40000] [40001-40200] [40201-40400] [40401-40600] [40601-40800] [40801-41000] [41001-41200] [41201-41400] [41401-41600] [41601-41800] [41801-42000] [42001-42200] [42201-42400] [42401-42600] [42601-42800] [42801-43000] [43001-43200] [43201-43400] [43401-43600] [43601-43800] [43801-44000] [44001-44200] [44201-44400] [44401-44600] [44601-44800] [44801-45000] [45001-45200] [45201-45400] [45401-45600] [45601-45800] [45801-46000] [46001-46200] [46201-46400] [46401-46600] [46601-46800] [46801-47000] [47001-47200] [47201-47400] [47401-47600] [47601-47800] [47801-48000] [48001-48200] [48201-48400] [48401-48600] [48601-48800] [48801-49000] [49001-49200] [49201-49400] [49401-49600] [49601-49800] [49801-50000] [50001-50200] [50201-50388]